Airfield :
LOGIN :

Register | Disclaimer

   EN    FR    IT 

 










Legend :    VFR   Marginal VFR   IFR   Intensive IFR   Very Intensive IFR
Visi :
Ceiling :
>= 8 km
>= 3000ft
5 to 8 km
1000 to 3000 ft
1500m to 5 km
500 to 1000 ft
800 to 1500m
200 to 500 ft
< 800m
< 200 ft
Symbols :   Thunderstorms  Fog  Heavy snow  Heavy precipitations  Wind > 20 kt
SIGMETs :     Misc.  Thunderstorms  Icing  Turbulence  Mountain Waves  Volcanic Ashes






- Airport Elevation : 0 ft


ENSL - Sleipner A Platform

CURRENT METAR :
  • 051920Z AUTO 23038KT 4400NDV -RA BR OVC009/// 09/08 Q0985 W06/S5

EXPIRED METARs :
  • 051850Z AUTO 22037KT 4300NDV -RA BR OVC009/// 09/08 Q0986 W06/S5
  • 051820Z AUTO 22036KT 4700NDV -RA OVC008/// 08/08 Q0987 W06/S5
  • 051750Z AUTO 22038KT 5000NDV -RA OVC010/// 08/08 Q0988 W06/S5
  • 051720Z AUTO 22038KT 3800NDV -RA OVC011/// 08/07 Q0989 W06/S5
  • 051650Z AUTO 22036KT 6000NDV -RA BKN009/// 08/07 Q0990 W06/S5

Expired Forecast.



MET'MAP, your aeronautical weather chart ! - Copyright ORBIFLY December 2007 - Disclaimer

ORBIFLY MET'MAP TEAM :

Programming & Development : Alexandra Zaïnal
Concept & original design : Baudouin d'Aumeries
Assistance for programming : Marc-Olivier Méhu
Technical & hardware support : Manuel Goepfert

Contact : metmap@orbifly.com




SOURCES & CREDITS :

   NOAA